sensor_id;sensor_type;location;lat;lon;timestamp;P1;durP1;ratioP1;P2;durP2;ratioP2
69789;SDS011;57064;52.046;4.800;2024-01-30T00:02:13;36.35;;;15.82;;
69789;SDS011;57064;52.046;4.800;2024-01-30T00:04:39;33.83;;;16.50;;
69789;SDS011;57064;52.046;4.800;2024-01-30T00:07:06;31.48;;;15.65;;
69789;SDS011;57064;52.046;4.800;2024-01-30T00:09:32;29.60;;;15.13;;
69789;SDS011;57064;52.046;4.800;2024-01-30T00:11:58;30.45;;;15.73;;
69789;SDS011;57064;52.046;4.800;2024-01-30T00:14:24;27.85;;;15.45;;
69789;SDS011;57064;52.046;4.800;2024-01-30T00:16:51;31.20;;;15.77;;
69789;SDS011;57064;52.046;4.800;2024-01-30T00:19:17;29.15;;;15.25;;
69789;SDS011;57064;52.046;4.800;2024-01-30T00:21:43;32.80;;;15.80;;
69789;SDS011;57064;52.046;4.800;2024-01-30T00:24:09;29.60;;;15.57;;
69789;SDS011;57064;52.046;4.800;2024-01-30T00:26:35;30.58;;;14.93;;
69789;SDS011;57064;52.046;4.800;2024-01-30T00:29:01;32.97;;;15.77;;
69789;SDS011;57064;52.046;4.800;2024-01-30T00:31:27;32.75;;;15.30;;
69789;SDS011;57064;52.046;4.800;2024-01-30T00:33:55;31.88;;;15.38;;
69789;SDS011;57064;52.046;4.800;2024-01-30T00:36:21;33.53;;;15.73;;
69789;SDS011;57064;52.046;4.800;2024-01-30T00:38:47;31.05;;;15.85;;
69789;SDS011;57064;52.046;4.800;2024-01-30T00:41:13;27.38;;;15.18;;
69789;SDS011;57064;52.046;4.800;2024-01-30T00:43:42;33.78;;;15.30;;
69789;SDS011;57064;52.046;4.800;2024-01-30T00:46:08;35.00;;;16.42;;
69789;SDS011;57064;52.046;4.800;2024-01-30T00:48:34;29.98;;;15.05;;
69789;SDS011;57064;52.046;4.800;2024-01-30T00:51:00;33.78;;;14.65;;
69789;SDS011;57064;52.046;4.800;2024-01-30T00:53:26;29.45;;;15.73;;
69789;SDS011;57064;52.046;4.800;2024-01-30T00:55:52;28.45;;;14.13;;
69789;SDS011;57064;52.046;4.800;2024-01-30T00:58:18;28.90;;;15.07;;
69789;SDS011;57064;52.046;4.800;2024-01-30T01:00:44;28.38;;;12.88;;
69789;SDS011;57064;52.046;4.800;2024-01-30T01:03:10;25.23;;;12.95;;
69789;SDS011;57064;52.046;4.800;2024-01-30T01:05:36;29.45;;;14.15;;
69789;SDS011;57064;52.046;4.800;2024-01-30T01:08:02;26.45;;;13.73;;
69789;SDS011;57064;52.046;4.800;2024-01-30T01:10:29;31.05;;;14.38;;
69789;SDS011;57064;52.046;4.800;2024-01-30T01:12:55;30.55;;;14.50;;
69789;SDS011;57064;52.046;4.800;2024-01-30T01:15:21;26.25;;;12.80;;
69789;SDS011;57064;52.046;4.800;2024-01-30T01:17:47;29.73;;;13.30;;
69789;SDS011;57064;52.046;4.800;2024-01-30T01:20:13;29.75;;;12.32;;
69789;SDS011;57064;52.046;4.800;2024-01-30T01:22:40;29.42;;;13.52;;
69789;SDS011;57064;52.046;4.800;2024-01-30T01:25:06;28.90;;;15.52;;
69789;SDS011;57064;52.046;4.800;2024-01-30T01:27:33;31.75;;;14.07;;
69789;SDS011;57064;52.046;4.800;2024-01-30T01:30:03;34.90;;;14.13;;
69789;SDS011;57064;52.046;4.800;2024-01-30T01:32:30;25.50;;;13.48;;
69789;SDS011;57064;52.046;4.800;2024-01-30T01:34:57;32.78;;;14.07;;
69789;SDS011;57064;52.046;4.800;2024-01-30T01:37:23;27.00;;;13.50;;
69789;SDS011;57064;52.046;4.800;2024-01-30T01:39:51;27.25;;;13.32;;
69789;SDS011;57064;52.046;4.800;2024-01-30T01:42:17;31.08;;;13.70;;
69789;SDS011;57064;52.046;4.800;2024-01-30T01:44:43;31.90;;;15.20;;
69789;SDS011;57064;52.046;4.800;2024-01-30T01:47:10;27.77;;;13.45;;
69789;SDS011;57064;52.046;4.800;2024-01-30T01:49:37;33.22;;;16.40;;
69789;SDS011;57064;52.046;4.800;2024-01-30T01:52:04;29.48;;;14.43;;
69789;SDS011;57064;52.046;4.800;2024-01-30T01:54:30;32.65;;;14.45;;
69789;SDS011;57064;52.046;4.800;2024-01-30T01:56:56;26.02;;;13.13;;
69789;SDS011;57064;52.046;4.800;2024-01-30T01:59:24;25.10;;;13.70;;
69789;SDS011;57064;52.046;4.800;2024-01-30T02:01:50;28.88;;;14.70;;
69789;SDS011;57064;52.046;4.800;2024-01-30T02:04:19;28.20;;;13.82;;
69789;SDS011;57064;52.046;4.800;2024-01-30T02:06:45;28.17;;;13.02;;
69789;SDS011;57064;52.046;4.800;2024-01-30T02:09:12;31.48;;;14.40;;
69789;SDS011;57064;52.046;4.800;2024-01-30T02:11:38;24.45;;;13.32;;
69789;SDS011;57064;52.046;4.800;2024-01-30T02:14:05;28.45;;;13.98;;
69789;SDS011;57064;52.046;4.800;2024-01-30T02:16:32;32.15;;;13.88;;
69789;SDS011;57064;52.046;4.800;2024-01-30T02:18:58;28.95;;;15.52;;
69789;SDS011;57064;52.046;4.800;2024-01-30T02:21:24;30.70;;;13.75;;
69789;SDS011;57064;52.046;4.800;2024-01-30T02:23:50;28.92;;;14.52;;
69789;SDS011;57064;52.046;4.800;2024-01-30T02:26:17;28.10;;;14.35;;
69789;SDS011;57064;52.046;4.800;2024-01-30T02:28:43;26.02;;;13.52;;
69789;SDS011;57064;52.046;4.800;2024-01-30T02:31:09;29.05;;;14.52;;
69789;SDS011;57064;52.046;4.800;2024-01-30T02:33:35;25.70;;;12.93;;
69789;SDS011;57064;52.046;4.800;2024-01-30T02:36:01;26.40;;;13.82;;
69789;SDS011;57064;52.046;4.800;2024-01-30T02:38:27;27.77;;;13.50;;
69789;SDS011;57064;52.046;4.800;2024-01-30T02:40:54;25.98;;;14.13;;
69789;SDS011;57064;52.046;4.800;2024-01-30T02:43:21;27.83;;;13.45;;
69789;SDS011;57064;52.046;4.800;2024-01-30T02:45:47;31.30;;;14.68;;
69789;SDS011;57064;52.046;4.800;2024-01-30T02:48:13;24.27;;;14.50;;
69789;SDS011;57064;52.046;4.800;2024-01-30T02:50:41;28.50;;;14.80;;
69789;SDS011;57064;52.046;4.800;2024-01-30T02:53:07;28.60;;;14.18;;
69789;SDS011;57064;52.046;4.800;2024-01-30T02:55:34;30.00;;;13.70;;
69789;SDS011;57064;52.046;4.800;2024-01-30T02:58:01;25.70;;;13.07;;
69789;SDS011;57064;52.046;4.800;2024-01-30T03:00:28;27.85;;;14.35;;
69789;SDS011;57064;52.046;4.800;2024-01-30T03:02:54;28.27;;;13.25;;
69789;SDS011;57064;52.046;4.800;2024-01-30T03:05:21;25.60;;;13.75;;
69789;SDS011;57064;52.046;4.800;2024-01-30T03:07:47;29.67;;;14.27;;
69789;SDS011;57064;52.046;4.800;2024-01-30T03:10:13;26.00;;;13.45;;
69789;SDS011;57064;52.046;4.800;2024-01-30T03:12:39;21.17;;;11.85;;
69789;SDS011;57064;52.046;4.800;2024-01-30T03:15:05;24.50;;;12.30;;
69789;SDS011;57064;52.046;4.800;2024-01-30T03:17:31;32.60;;;13.10;;
69789;SDS011;57064;52.046;4.800;2024-01-30T03:19:57;24.17;;;12.27;;
69789;SDS011;57064;52.046;4.800;2024-01-30T03:22:23;23.63;;;12.65;;
69789;SDS011;57064;52.046;4.800;2024-01-30T03:24:49;27.35;;;12.27;;
69789;SDS011;57064;52.046;4.800;2024-01-30T03:27:16;22.92;;;12.32;;
69789;SDS011;57064;52.046;4.800;2024-01-30T03:29:42;29.02;;;13.52;;
69789;SDS011;57064;52.046;4.800;2024-01-30T03:32:08;31.15;;;12.32;;
69789;SDS011;57064;52.046;4.800;2024-01-30T03:34:34;26.60;;;12.80;;
69789;SDS011;57064;52.046;4.800;2024-01-30T03:37:00;23.40;;;11.68;;
69789;SDS011;57064;52.046;4.800;2024-01-30T03:39:27;28.83;;;12.50;;
69789;SDS011;57064;52.046;4.800;2024-01-30T03:41:53;24.58;;;11.73;;
69789;SDS011;57064;52.046;4.800;2024-01-30T03:44:19;22.35;;;11.63;;
69789;SDS011;57064;52.046;4.800;2024-01-30T03:46:45;24.15;;;12.02;;
69789;SDS011;57064;52.046;4.800;2024-01-30T03:49:11;27.60;;;13.05;;
69789;SDS011;57064;52.046;4.800;2024-01-30T03:51:37;25.95;;;11.98;;
69789;SDS011;57064;52.046;4.800;2024-01-30T03:54:04;25.35;;;12.90;;
69789;SDS011;57064;52.046;4.800;2024-01-30T03:56:30;24.00;;;11.95;;
69789;SDS011;57064;52.046;4.800;2024-01-30T03:58:56;22.90;;;11.90;;
69789;SDS011;57064;52.046;4.800;2024-01-30T04:01:23;26.10;;;12.60;;
69789;SDS011;57064;52.046;4.800;2024-01-30T04:03:50;22.13;;;11.52;;
69789;SDS011;57064;52.046;4.800;2024-01-30T04:06:16;21.80;;;12.35;;
69789;SDS011;57064;52.046;4.800;2024-01-30T04:08:42;28.45;;;12.90;;
69789;SDS011;57064;52.046;4.800;2024-01-30T04:11:08;21.42;;;11.30;;
69789;SDS011;57064;52.046;4.800;2024-01-30T04:13:34;21.63;;;11.45;;
69789;SDS011;57064;52.046;4.800;2024-01-30T04:16:00;22.50;;;11.88;;
69789;SDS011;57064;52.046;4.800;2024-01-30T04:18:27;22.60;;;12.25;;
69789;SDS011;57064;52.046;4.800;2024-01-30T04:20:54;25.13;;;11.10;;
69789;SDS011;57064;52.046;4.800;2024-01-30T04:23:21;22.65;;;11.05;;
69789;SDS011;57064;52.046;4.800;2024-01-30T04:25:47;26.20;;;11.57;;
69789;SDS011;57064;52.046;4.800;2024-01-30T04:28:14;24.65;;;11.43;;
69789;SDS011;57064;52.046;4.800;2024-01-30T04:30:40;23.77;;;11.93;;
69789;SDS011;57064;52.046;4.800;2024-01-30T04:33:06;23.63;;;11.48;;
69789;SDS011;57064;52.046;4.800;2024-01-30T04:35:32;24.63;;;12.02;;
69789;SDS011;57064;52.046;4.800;2024-01-30T04:37:58;25.33;;;11.52;;
69789;SDS011;57064;52.046;4.800;2024-01-30T04:40:24;26.02;;;11.50;;
69789;SDS011;57064;52.046;4.800;2024-01-30T04:42:50;24.55;;;11.85;;
69789;SDS011;57064;52.046;4.800;2024-01-30T04:45:18;21.98;;;11.50;;
69789;SDS011;57064;52.046;4.800;2024-01-30T04:47:44;25.08;;;11.15;;
69789;SDS011;57064;52.046;4.800;2024-01-30T04:50:11;21.92;;;11.38;;
69789;SDS011;57064;52.046;4.800;2024-01-30T04:52:37;21.15;;;11.70;;
69789;SDS011;57064;52.046;4.800;2024-01-30T04:55:03;25.38;;;12.23;;
69789;SDS011;57064;52.046;4.800;2024-01-30T04:57:29;23.92;;;10.65;;
69789;SDS011;57064;52.046;4.800;2024-01-30T04:59:56;22.30;;;10.82;;
69789;SDS011;57064;52.046;4.800;2024-01-30T05:02:22;22.88;;;10.43;;
69789;SDS011;57064;52.046;4.800;2024-01-30T05:04:49;25.98;;;11.40;;
69789;SDS011;57064;52.046;4.800;2024-01-30T05:07:15;23.58;;;11.88;;
69789;SDS011;57064;52.046;4.800;2024-01-30T05:09:41;22.35;;;11.98;;
69789;SDS011;57064;52.046;4.800;2024-01-30T05:12:07;22.50;;;10.90;;
69789;SDS011;57064;52.046;4.800;2024-01-30T05:14:33;23.60;;;11.10;;
69789;SDS011;57064;52.046;4.800;2024-01-30T05:16:59;22.90;;;10.95;;
69789;SDS011;57064;52.046;4.800;2024-01-30T05:19:28;27.02;;;11.40;;
69789;SDS011;57064;52.046;4.800;2024-01-30T05:21:54;19.83;;;10.60;;
69789;SDS011;57064;52.046;4.800;2024-01-30T05:24:20;24.60;;;10.73;;
69789;SDS011;57064;52.046;4.800;2024-01-30T05:26:46;20.10;;;10.43;;
69789;SDS011;57064;52.046;4.800;2024-01-30T05:29:13;20.77;;;11.52;;
69789;SDS011;57064;52.046;4.800;2024-01-30T05:31:40;20.35;;;10.88;;
69789;SDS011;57064;52.046;4.800;2024-01-30T05:34:07;21.05;;;11.15;;
69789;SDS011;57064;52.046;4.800;2024-01-30T05:36:34;21.17;;;10.48;;
69789;SDS011;57064;52.046;4.800;2024-01-30T05:39:00;21.73;;;11.82;;
69789;SDS011;57064;52.046;4.800;2024-01-30T05:41:26;20.60;;;10.93;;
69789;SDS011;57064;52.046;4.800;2024-01-30T05:43:52;27.80;;;12.63;;
69789;SDS011;57064;52.046;4.800;2024-01-30T05:46:18;22.55;;;10.77;;
69789;SDS011;57064;52.046;4.800;2024-01-30T05:48:44;23.10;;;10.45;;
69789;SDS011;57064;52.046;4.800;2024-01-30T05:51:10;20.88;;;10.75;;
69789;SDS011;57064;52.046;4.800;2024-01-30T05:53:36;22.75;;;11.25;;
69789;SDS011;57064;52.046;4.800;2024-01-30T05:56:03;20.65;;;10.65;;
69789;SDS011;57064;52.046;4.800;2024-01-30T05:58:29;26.80;;;10.82;;
69789;SDS011;57064;52.046;4.800;2024-01-30T06:00:58;24.02;;;10.77;;
69789;SDS011;57064;52.046;4.800;2024-01-30T06:03:24;22.75;;;11.27;;
69789;SDS011;57064;52.046;4.800;2024-01-30T06:05:50;21.00;;;10.65;;
69789;SDS011;57064;52.046;4.800;2024-01-30T06:08:17;19.90;;;10.07;;
69789;SDS011;57064;52.046;4.800;2024-01-30T06:10:43;24.70;;;11.05;;
69789;SDS011;57064;52.046;4.800;2024-01-30T06:13:09;18.08;;;10.82;;
69789;SDS011;57064;52.046;4.800;2024-01-30T06:15:35;19.77;;;10.85;;
69789;SDS011;57064;52.046;4.800;2024-01-30T06:18:01;20.00;;;10.15;;
69789;SDS011;57064;52.046;4.800;2024-01-30T06:20:28;18.63;;;9.95;;
69789;SDS011;57064;52.046;4.800;2024-01-30T06:22:54;19.92;;;9.90;;
69789;SDS011;57064;52.046;4.800;2024-01-30T06:25:20;19.05;;;10.25;;
69789;SDS011;57064;52.046;4.800;2024-01-30T06:27:46;17.08;;;10.48;;
69789;SDS011;57064;52.046;4.800;2024-01-30T06:30:12;22.15;;;10.95;;
69789;SDS011;57064;52.046;4.800;2024-01-30T06:32:38;19.65;;;10.02;;
69789;SDS011;57064;52.046;4.800;2024-01-30T06:35:05;20.35;;;9.95;;
69789;SDS011;57064;52.046;4.800;2024-01-30T06:37:31;21.02;;;9.73;;
69789;SDS011;57064;52.046;4.800;2024-01-30T06:39:57;17.02;;;9.55;;
69789;SDS011;57064;52.046;4.800;2024-01-30T06:42:23;23.05;;;11.18;;
69789;SDS011;57064;52.046;4.800;2024-01-30T06:44:49;20.48;;;10.23;;
69789;SDS011;57064;52.046;4.800;2024-01-30T06:47:15;23.73;;;10.70;;
69789;SDS011;57064;52.046;4.800;2024-01-30T06:49:41;18.70;;;10.05;;
69789;SDS011;57064;52.046;4.800;2024-01-30T06:52:08;19.98;;;9.85;;
69789;SDS011;57064;52.046;4.800;2024-01-30T06:54:35;21.25;;;10.20;;
69789;SDS011;57064;52.046;4.800;2024-01-30T06:57:01;19.73;;;9.27;;
69789;SDS011;57064;52.046;4.800;2024-01-30T06:59:28;19.20;;;9.80;;
69789;SDS011;57064;52.046;4.800;2024-01-30T07:01:54;22.50;;;10.55;;
69789;SDS011;57064;52.046;4.800;2024-01-30T07:04:20;17.35;;;9.48;;
69789;SDS011;57064;52.046;4.800;2024-01-30T07:06:46;16.20;;;9.13;;
69789;SDS011;57064;52.046;4.800;2024-01-30T07:09:12;19.73;;;9.90;;
69789;SDS011;57064;52.046;4.800;2024-01-30T07:11:38;19.65;;;9.52;;
69789;SDS011;57064;52.046;4.800;2024-01-30T07:14:04;17.38;;;9.73;;
69789;SDS011;57064;52.046;4.800;2024-01-30T07:16:30;20.65;;;9.77;;
69789;SDS011;57064;52.046;4.800;2024-01-30T07:18:57;17.85;;;9.18;;
69789;SDS011;57064;52.046;4.800;2024-01-30T07:21:23;19.90;;;9.70;;
69789;SDS011;57064;52.046;4.800;2024-01-30T07:23:56;16.73;;;8.77;;
69789;SDS011;57064;52.046;4.800;2024-01-30T07:26:22;21.60;;;11.05;;
69789;SDS011;57064;52.046;4.800;2024-01-30T07:28:48;18.17;;;9.55;;
69789;SDS011;57064;52.046;4.800;2024-01-30T07:31:15;20.42;;;9.32;;
69789;SDS011;57064;52.046;4.800;2024-01-30T07:33:41;19.08;;;9.48;;
69789;SDS011;57064;52.046;4.800;2024-01-30T07:36:07;21.60;;;10.15;;
69789;SDS011;57064;52.046;4.800;2024-01-30T07:38:33;19.58;;;9.02;;
69789;SDS011;57064;52.046;4.800;2024-01-30T07:40:59;19.60;;;9.73;;
69789;SDS011;57064;52.046;4.800;2024-01-30T07:43:25;21.80;;;9.65;;
69789;SDS011;57064;52.046;4.800;2024-01-30T07:45:51;18.40;;;8.52;;
69789;SDS011;57064;52.046;4.800;2024-01-30T07:48:17;21.40;;;9.55;;
69789;SDS011;57064;52.046;4.800;2024-01-30T07:50:43;16.70;;;8.27;;
69789;SDS011;57064;52.046;4.800;2024-01-30T07:53:09;19.38;;;9.18;;
69789;SDS011;57064;52.046;4.800;2024-01-30T07:55:37;15.98;;;8.10;;
69789;SDS011;57064;52.046;4.800;2024-01-30T07:58:03;21.02;;;9.27;;
69789;SDS011;57064;52.046;4.800;2024-01-30T08:00:30;18.13;;;8.63;;
69789;SDS011;57064;52.046;4.800;2024-01-30T08:02:57;17.58;;;9.25;;
69789;SDS011;57064;52.046;4.800;2024-01-30T08:05:23;15.27;;;7.88;;
69789;SDS011;57064;52.046;4.800;2024-01-30T08:07:49;21.17;;;8.70;;
69789;SDS011;57064;52.046;4.800;2024-01-30T08:10:16;15.40;;;9.25;;
69789;SDS011;57064;52.046;4.800;2024-01-30T08:12:43;14.63;;;8.25;;
69789;SDS011;57064;52.046;4.800;2024-01-30T08:15:10;18.20;;;9.20;;
69789;SDS011;57064;52.046;4.800;2024-01-30T08:17:37;21.42;;;8.15;;
69789;SDS011;57064;52.046;4.800;2024-01-30T08:20:03;16.73;;;8.57;;
69789;SDS011;57064;52.046;4.800;2024-01-30T08:22:30;17.13;;;8.27;;
69789;SDS011;57064;52.046;4.800;2024-01-30T08:24:56;16.60;;;8.63;;
69789;SDS011;57064;52.046;4.800;2024-01-30T08:27:22;19.17;;;9.27;;
69789;SDS011;57064;52.046;4.800;2024-01-30T08:29:48;21.02;;;8.93;;
69789;SDS011;57064;52.046;4.800;2024-01-30T08:32:15;17.58;;;9.30;;
69789;SDS011;57064;52.046;4.800;2024-01-30T08:34:41;14.35;;;8.20;;
69789;SDS011;57064;52.046;4.800;2024-01-30T08:37:07;20.00;;;9.70;;
69789;SDS011;57064;52.046;4.800;2024-01-30T08:39:33;23.63;;;11.05;;
69789;SDS011;57064;52.046;4.800;2024-01-30T08:42:00;17.92;;;9.45;;
69789;SDS011;57064;52.046;4.800;2024-01-30T08:44:26;18.73;;;9.60;;
69789;SDS011;57064;52.046;4.800;2024-01-30T08:46:53;15.70;;;8.00;;
69789;SDS011;57064;52.046;4.800;2024-01-30T08:49:19;12.88;;;8.15;;
69789;SDS011;57064;52.046;4.800;2024-01-30T08:51:46;15.38;;;7.75;;
69789;SDS011;57064;52.046;4.800;2024-01-30T08:54:12;17.40;;;8.02;;
69789;SDS011;57064;52.046;4.800;2024-01-30T08:56:38;15.52;;;8.63;;
69789;SDS011;57064;52.046;4.800;2024-01-30T08:59:04;18.25;;;7.90;;
69789;SDS011;57064;52.046;4.800;2024-01-30T09:01:30;17.17;;;7.07;;
69789;SDS011;57064;52.046;4.800;2024-01-30T09:03:56;18.60;;;7.72;;
69789;SDS011;57064;52.046;4.800;2024-01-30T09:06:22;17.98;;;7.82;;
69789;SDS011;57064;52.046;4.800;2024-01-30T09:08:53;16.73;;;7.15;;
69789;SDS011;57064;52.046;4.800;2024-01-30T09:11:19;20.77;;;8.13;;
69789;SDS011;57064;52.046;4.800;2024-01-30T09:13:45;16.08;;;6.70;;
69789;SDS011;57064;52.046;4.800;2024-01-30T09:16:11;11.43;;;6.93;;
69789;SDS011;57064;52.046;4.800;2024-01-30T09:18:37;16.13;;;7.68;;
69789;SDS011;57064;52.046;4.800;2024-01-30T09:21:04;15.00;;;7.32;;
69789;SDS011;57064;52.046;4.800;2024-01-30T09:23:30;17.48;;;7.38;;
69789;SDS011;57064;52.046;4.800;2024-01-30T09:25:56;13.23;;;7.40;;
69789;SDS011;57064;52.046;4.800;2024-01-30T09:28:22;11.80;;;6.55;;
69789;SDS011;57064;52.046;4.800;2024-01-30T09:30:48;19.67;;;7.30;;
69789;SDS011;57064;52.046;4.800;2024-01-30T09:33:14;14.98;;;6.78;;
69789;SDS011;57064;52.046;4.800;2024-01-30T09:35:40;12.65;;;6.25;;
69789;SDS011;57064;52.046;4.800;2024-01-30T09:38:06;15.77;;;6.22;;
69789;SDS011;57064;52.046;4.800;2024-01-30T09:40:32;15.02;;;6.78;;
69789;SDS011;57064;52.046;4.800;2024-01-30T09:42:59;17.33;;;7.50;;
69789;SDS011;57064;52.046;4.800;2024-01-30T09:45:25;13.50;;;7.15;;
69789;SDS011;57064;52.046;4.800;2024-01-30T09:47:52;11.85;;;6.43;;
69789;SDS011;57064;52.046;4.800;2024-01-30T09:50:18;13.63;;;7.85;;
69789;SDS011;57064;52.046;4.800;2024-01-30T09:52:45;17.38;;;8.95;;
69789;SDS011;57064;52.046;4.800;2024-01-30T09:55:11;14.80;;;6.82;;
69789;SDS011;57064;52.046;4.800;2024-01-30T09:57:38;12.73;;;7.20;;
69789;SDS011;57064;52.046;4.800;2024-01-30T10:00:04;12.45;;;6.40;;
69789;SDS011;57064;52.046;4.800;2024-01-30T10:02:34;14.40;;;7.13;;
69789;SDS011;57064;52.046;4.800;2024-01-30T10:05:00;14.68;;;6.68;;
69789;SDS011;57064;52.046;4.800;2024-01-30T10:07:27;12.32;;;6.53;;
69789;SDS011;57064;52.046;4.800;2024-01-30T10:09:53;14.63;;;6.25;;
69789;SDS011;57064;52.046;4.800;2024-01-30T10:12:21;11.07;;;5.32;;
69789;SDS011;57064;52.046;4.800;2024-01-30T10:14:48;11.88;;;5.65;;
69789;SDS011;57064;52.046;4.800;2024-01-30T10:17:14;10.00;;;5.43;;
69789;SDS011;57064;52.046;4.800;2024-01-30T10:19:40;9.65;;;5.78;;
69789;SDS011;57064;52.046;4.800;2024-01-30T10:22:07;10.48;;;4.97;;
69789;SDS011;57064;52.046;4.800;2024-01-30T10:24:34;10.55;;;4.60;;
69789;SDS011;57064;52.046;4.800;2024-01-30T10:27:00;7.10;;;3.25;;
69789;SDS011;57064;52.046;4.800;2024-01-30T10:29:27;5.45;;;2.97;;
69789;SDS011;57064;52.046;4.800;2024-01-30T10:32:00;9.93;;;2.90;;
69789;SDS011;57064;52.046;4.800;2024-01-30T10:34:27;9.68;;;4.28;;
69789;SDS011;57064;52.046;4.800;2024-01-30T10:37:06;11.50;;;3.85;;
69789;SDS011;57064;52.046;4.800;2024-01-30T10:39:43;11.18;;;3.90;;
69789;SDS011;57064;52.046;4.800;2024-01-30T10:42:13;7.85;;;3.10;;
69789;SDS011;57064;52.046;4.800;2024-01-30T10:47:35;7.10;;;2.53;;
69789;SDS011;57064;52.046;4.800;2024-01-30T10:50:02;9.98;;;3.47;;
69789;SDS011;57064;52.046;4.800;2024-01-30T10:52:28;3.03;;;2.08;;
69789;SDS011;57064;52.046;4.800;2024-01-30T10:54:56;9.65;;;2.80;;
69789;SDS011;57064;52.046;4.800;2024-01-30T10:57:23;6.38;;;2.13;;
69789;SDS011;57064;52.046;4.800;2024-01-30T10:59:51;5.63;;;1.83;;
69789;SDS011;57064;52.046;4.800;2024-01-30T11:02:24;6.88;;;1.95;;
69789;SDS011;57064;52.046;4.800;2024-01-30T11:04:54;4.63;;;2.28;;
69789;SDS011;57064;52.046;4.800;2024-01-30T11:07:26;7.40;;;2.38;;
69789;SDS011;57064;52.046;4.800;2024-01-30T11:09:54;3.33;;;2.15;;
69789;SDS011;57064;52.046;4.800;2024-01-30T11:12:26;8.45;;;2.58;;
69789;SDS011;57064;52.046;4.800;2024-01-30T11:20:14;3.38;;;1.45;;
69789;SDS011;57064;52.046;4.800;2024-01-30T11:22:42;8.98;;;2.13;;
69789;SDS011;57064;52.046;4.800;2024-01-30T11:25:15;3.70;;;1.23;;
69789;SDS011;57064;52.046;4.800;2024-01-30T11:27:42;4.40;;;1.38;;
69789;SDS011;57064;52.046;4.800;2024-01-30T11:30:10;7.35;;;1.98;;
69789;SDS011;57064;52.046;4.800;2024-01-30T11:32:45;4.68;;;1.05;;
69789;SDS011;57064;52.046;4.800;2024-01-30T11:35:11;6.50;;;1.45;;
69789;SDS011;57064;52.046;4.800;2024-01-30T11:37:37;1.48;;;0.82;;
69789;SDS011;57064;52.046;4.800;2024-01-30T11:40:04;9.25;;;1.52;;
69789;SDS011;57064;52.046;4.800;2024-01-30T11:42:31;6.80;;;1.17;;
69789;SDS011;57064;52.046;4.800;2024-01-30T11:44:59;4.47;;;1.17;;
69789;SDS011;57064;52.046;4.800;2024-01-30T11:47:28;3.08;;;1.30;;
69789;SDS011;57064;52.046;4.800;2024-01-30T11:49:54;1.73;;;0.73;;
69789;SDS011;57064;52.046;4.800;2024-01-30T11:52:20;5.57;;;0.90;;
69789;SDS011;57064;52.046;4.800;2024-01-30T11:54:46;5.55;;;1.33;;
69789;SDS011;57064;52.046;4.800;2024-01-30T11:57:12;4.78;;;0.75;;
69789;SDS011;57064;52.046;4.800;2024-01-30T11:59:38;5.68;;;1.40;;
69789;SDS011;57064;52.046;4.800;2024-01-30T12:02:04;6.57;;;1.10;;
69789;SDS011;57064;52.046;4.800;2024-01-30T12:04:30;2.10;;;0.63;;
69789;SDS011;57064;52.046;4.800;2024-01-30T12:06:56;1.52;;;0.80;;
69789;SDS011;57064;52.046;4.800;2024-01-30T12:09:22;6.65;;;1.05;;
69789;SDS011;57064;52.046;4.800;2024-01-30T12:11:49;2.63;;;0.75;;
69789;SDS011;57064;52.046;4.800;2024-01-30T12:14:15;2.30;;;0.57;;
69789;SDS011;57064;52.046;4.800;2024-01-30T12:16:42;1.70;;;0.63;;
69789;SDS011;57064;52.046;4.800;2024-01-30T12:19:08;5.10;;;0.98;;
69789;SDS011;57064;52.046;4.800;2024-01-30T12:21:34;1.63;;;0.60;;
69789;SDS011;57064;52.046;4.800;2024-01-30T12:24:01;3.03;;;0.70;;
69789;SDS011;57064;52.046;4.800;2024-01-30T12:26:28;4.30;;;0.77;;
69789;SDS011;57064;52.046;4.800;2024-01-30T12:28:54;6.70;;;1.10;;
69789;SDS011;57064;52.046;4.800;2024-01-30T12:31:26;3.78;;;0.80;;
69789;SDS011;57064;52.046;4.800;2024-01-30T12:33:53;4.90;;;0.90;;
69789;SDS011;57064;52.046;4.800;2024-01-30T12:36:20;1.33;;;0.60;;
69789;SDS011;57064;52.046;4.800;2024-01-30T12:38:47;4.80;;;1.00;;
69789;SDS011;57064;52.046;4.800;2024-01-30T12:41:13;3.15;;;0.82;;
69789;SDS011;57064;52.046;4.800;2024-01-30T12:43:39;5.47;;;0.95;;
69789;SDS011;57064;52.046;4.800;2024-01-30T12:46:06;3.03;;;0.90;;
69789;SDS011;57064;52.046;4.800;2024-01-30T12:48:32;2.55;;;0.75;;
69789;SDS011;57064;52.046;4.800;2024-01-30T12:50:58;5.30;;;1.20;;
69789;SDS011;57064;52.046;4.800;2024-01-30T12:53:25;3.35;;;0.95;;
69789;SDS011;57064;52.046;4.800;2024-01-30T12:55:51;2.70;;;1.45;;
69789;SDS011;57064;52.046;4.800;2024-01-30T12:58:19;10.00;;;1.13;;
69789;SDS011;57064;52.046;4.800;2024-01-30T13:00:45;5.65;;;1.65;;
69789;SDS011;57064;52.046;4.800;2024-01-30T13:03:12;3.90;;;1.35;;
69789;SDS011;57064;52.046;4.800;2024-01-30T13:05:38;5.88;;;1.08;;
69789;SDS011;57064;52.046;4.800;2024-01-30T13:08:04;4.88;;;1.25;;
69789;SDS011;57064;52.046;4.800;2024-01-30T13:10:30;7.47;;;1.25;;
69789;SDS011;57064;52.046;4.800;2024-01-30T13:12:56;6.90;;;1.70;;
69789;SDS011;57064;52.046;4.800;2024-01-30T13:15:22;5.55;;;1.50;;
69789;SDS011;57064;52.046;4.800;2024-01-30T13:17:49;7.03;;;1.35;;
69789;SDS011;57064;52.046;4.800;2024-01-30T13:20:15;2.78;;;1.45;;
69789;SDS011;57064;52.046;4.800;2024-01-30T13:22:44;5.15;;;1.75;;
69789;SDS011;57064;52.046;4.800;2024-01-30T13:25:10;4.68;;;1.85;;
69789;SDS011;57064;52.046;4.800;2024-01-30T13:27:36;4.15;;;1.70;;
69789;SDS011;57064;52.046;4.800;2024-01-30T13:30:02;16.55;;;3.05;;
69789;SDS011;57064;52.046;4.800;2024-01-30T13:32:29;7.65;;;1.48;;
69789;SDS011;57064;52.046;4.800;2024-01-30T13:34:55;10.00;;;1.95;;
69789;SDS011;57064;52.046;4.800;2024-01-30T13:37:22;7.20;;;2.05;;
69789;SDS011;57064;52.046;4.800;2024-01-30T13:39:48;7.25;;;1.60;;
69789;SDS011;57064;52.046;4.800;2024-01-30T13:42:14;3.80;;;1.50;;
69789;SDS011;57064;52.046;4.800;2024-01-30T13:44:40;5.70;;;1.30;;
69789;SDS011;57064;52.046;4.800;2024-01-30T13:47:09;4.40;;;1.27;;
69789;SDS011;57064;52.046;4.800;2024-01-30T13:49:35;2.50;;;1.15;;
69789;SDS011;57064;52.046;4.800;2024-01-30T13:52:01;6.93;;;1.42;;
69789;SDS011;57064;52.046;4.800;2024-01-30T13:54:28;4.15;;;1.30;;
69789;SDS011;57064;52.046;4.800;2024-01-30T13:56:55;4.93;;;1.50;;
69789;SDS011;57064;52.046;4.800;2024-01-30T13:59:22;5.18;;;1.70;;
69789;SDS011;57064;52.046;4.800;2024-01-30T14:01:50;4.43;;;1.83;;
69789;SDS011;57064;52.046;4.800;2024-01-30T14:04:17;4.38;;;1.60;;
69789;SDS011;57064;52.046;4.800;2024-01-30T14:06:43;3.15;;;1.88;;
69789;SDS011;57064;52.046;4.800;2024-01-30T14:09:09;3.60;;;1.50;;
69789;SDS011;57064;52.046;4.800;2024-01-30T14:11:36;3.85;;;1.70;;
69789;SDS011;57064;52.046;4.800;2024-01-30T14:14:02;2.28;;;1.50;;
69789;SDS011;57064;52.046;4.800;2024-01-30T14:16:28;3.88;;;2.13;;
69789;SDS011;57064;52.046;4.800;2024-01-30T14:18:54;2.72;;;1.67;;
69789;SDS011;57064;52.046;4.800;2024-01-30T14:21:20;3.00;;;2.00;;
69789;SDS011;57064;52.046;4.800;2024-01-30T14:23:46;6.13;;;2.30;;
69789;SDS011;57064;52.046;4.800;2024-01-30T14:26:12;4.68;;;2.58;;
69789;SDS011;57064;52.046;4.800;2024-01-30T14:28:38;4.72;;;1.95;;
69789;SDS011;57064;52.046;4.800;2024-01-30T14:31:04;4.82;;;2.40;;
69789;SDS011;57064;52.046;4.800;2024-01-30T14:33:30;4.32;;;2.35;;
69789;SDS011;57064;52.046;4.800;2024-01-30T14:35:57;10.20;;;2.97;;